Terminal Aerodrome Forecast
Issued by NWS

Home | Current Version | Previous Version | Text Only | Print | Product List | Glossary Off
Versions: 1 2 3 4 5 6 7 8 9 10 11 12 13 14 15 16 17 18

583
FTUS43 KIWX 032336
TAFSBN
TAF
KSBN 032336Z 0400/0424 28015G25KT P6SM -SHSN OVC014
     FM040200 26013KT 5SM -SHSN OVC012
      TEMPO 0402/0406 2SM -SHSN
     FM040600 27011KT P6SM -SHSN OVC015
     FM041500 27010KT P6SM SCT015 BKN035=

USA.gov is the U.S. government's official web portal to all federal, state and local government web resources and services.